B603L RJCC-ZYTX
Flight info
| Callsign | B603L |
|---|---|
| Flight time | N/A |
| Altitude | 34000 |
| Route | HWE Y12 TAPPI Z16 GNITS Z162 SEPCO/N0472F360 Z162 KAMSA L512 TENAS B467 KAE G597 ANSIM Y697 AGAVO/K0876S1040 G597 DONVO A326 SANKO/K0880S1010 W107 CHI A588 TOSID |
| Aircraft | CL60/M-SBDE1E2E3FGHIJ1J4J5J7M3RWXYZ/LB1V1D1 |
Departure
| Time | N/A |
|---|---|
| Airport | New Chitose Airport (RJCC) |
Arrival
| Time | 2026-05-05 10:56 |
|---|---|
| Airport | Shenyang Taoxian International Airport (ZYTX) |
| Time | Latitude | Longitude | Altitude | Speed | Heading |
|---|---|---|---|---|---|
| 2026-05-05 09:00 | 37.69585 | 129.10356 | 37992 ft | 423 kts | 270° |
| 2026-05-05 09:00 | 37.69678 | 129.02904 | 37973 ft | 425 kts | 270° |
| 2026-05-05 09:01 | 37.69766 | 128.95459 | 37993 ft | 425 kts | 270° |
| 2026-05-05 09:01 | 37.69850 | 128.87976 | 38018 ft | 425 kts | 270° |
| 2026-05-05 09:02 | 37.69930 | 128.80478 | 38024 ft | 426 kts | 270° |
| 2026-05-05 09:02 | 37.69702 | 128.73030 | 38028 ft | 426 kts | 261° |
| 2026-05-05 09:03 | 37.68593 | 128.65590 | 38024 ft | 426 kts | 259° |
| 2026-05-05 09:03 | 37.67477 | 128.58255 | 38099 ft | 423 kts | 259° |
| 2026-05-05 09:03 | 37.66924 | 128.54640 | 38343 ft | 417 kts | 259° |
| 2026-05-05 09:04 | 37.66381 | 128.51103 | 38598 ft | 412 kts | 259° |
| 2026-05-05 09:04 | 37.65832 | 128.47522 | 38856 ft | 409 kts | 259° |
| 2026-05-05 09:04 | 37.65295 | 128.44022 | 39104 ft | 407 kts | 259° |
| 2026-05-05 09:04 | 37.64759 | 128.40530 | 39317 ft | 405 kts | 259° |
| 2026-05-05 09:05 | 37.64220 | 128.37024 | 39436 ft | 406 kts | 259° |
| 2026-05-05 09:05 | 37.63145 | 128.30037 | 39595 ft | 409 kts | 259° |
| 2026-05-05 09:05 | 37.62600 | 128.26502 | 39706 ft | 410 kts | 259° |
| 2026-05-05 09:06 | 37.62057 | 128.22986 | 39839 ft | 409 kts | 259° |
| 2026-05-05 09:06 | 37.61516 | 128.19493 | 40011 ft | 408 kts | 259° |
| 2026-05-05 09:06 | 37.60968 | 128.15953 | 40024 ft | 410 kts | 259° |
| 2026-05-05 09:07 | 37.59873 | 128.08902 | 40041 ft | 412 kts | 259° |
| 2026-05-05 09:07 | 37.58767 | 128.01802 | 40021 ft | 411 kts | 259° |
| 2026-05-05 09:08 | 37.57666 | 127.94766 | 40015 ft | 410 kts | 259° |
| 2026-05-05 09:08 | 37.56560 | 127.87719 | 40023 ft | 410 kts | 259° |
| 2026-05-05 09:09 | 37.55448 | 127.80660 | 40025 ft | 410 kts | 259° |
| 2026-05-05 09:09 | 37.54335 | 127.73622 | 40028 ft | 412 kts | 259° |
| 2026-05-05 09:10 | 37.53214 | 127.66559 | 40026 ft | 411 kts | 259° |
| 2026-05-05 09:10 | 37.52087 | 127.59479 | 40027 ft | 411 kts | 259° |
| 2026-05-05 09:11 | 37.50961 | 127.52432 | 40024 ft | 412 kts | 259° |
| 2026-05-05 09:11 | 37.49827 | 127.45359 | 40031 ft | 412 kts | 259° |
| 2026-05-05 09:12 | 37.48689 | 127.38287 | 40034 ft | 412 kts | 259° |
| 2026-05-05 09:12 | 37.47542 | 127.31197 | 40047 ft | 413 kts | 259° |
| 2026-05-05 09:13 | 37.46383 | 127.24059 | 40049 ft | 415 kts | 259° |
| 2026-05-05 09:13 | 37.45218 | 127.16909 | 40058 ft | 420 kts | 259° |
| 2026-05-05 09:14 | 37.44037 | 127.09695 | 40060 ft | 424 kts | 259° |
| 2026-05-05 09:14 | 37.42842 | 127.02419 | 40056 ft | 427 kts | 259° |
| 2026-05-05 09:15 | 37.41642 | 126.95130 | 40048 ft | 427 kts | 259° |
| 2026-05-05 09:15 | 37.41235 | 126.87714 | 40051 ft | 426 kts | 270° |
| 2026-05-05 09:16 | 37.41215 | 126.80242 | 40043 ft | 426 kts | 269° |
| 2026-05-05 09:16 | 37.41186 | 126.72816 | 40063 ft | 426 kts | 269° |
| 2026-05-05 09:17 | 37.41153 | 126.65370 | 40054 ft | 426 kts | 270° |
| 2026-05-05 09:17 | 37.41114 | 126.57918 | 40039 ft | 426 kts | 270° |
| 2026-05-05 09:18 | 37.41071 | 126.50491 | 40053 ft | 426 kts | 270° |
| 2026-05-05 09:18 | 37.41025 | 126.43066 | 40056 ft | 427 kts | 270° |
| 2026-05-05 09:19 | 37.40975 | 126.35583 | 40054 ft | 427 kts | 270° |
| 2026-05-05 09:19 | 37.40919 | 126.28101 | 40056 ft | 427 kts | 269° |
| 2026-05-05 09:20 | 37.40860 | 126.20696 | 40025 ft | 428 kts | 269° |
| 2026-05-05 09:20 | 37.40795 | 126.13221 | 40042 ft | 427 kts | 269° |
| 2026-05-05 09:21 | 37.40726 | 126.05764 | 40019 ft | 429 kts | 269° |
| 2026-05-05 09:21 | 37.40651 | 125.98263 | 40042 ft | 429 kts | 269° |
| 2026-05-05 09:22 | 37.40572 | 125.90784 | 40030 ft | 429 kts | 270° |
| 2026-05-05 09:22 | 37.40488 | 125.83290 | 40049 ft | 429 kts | 269° |
| 2026-05-05 09:23 | 37.40400 | 125.75826 | 40044 ft | 429 kts | 269° |
| 2026-05-05 09:23 | 37.40307 | 125.68364 | 40033 ft | 429 kts | 270° |
| 2026-05-05 09:24 | 37.40208 | 125.60850 | 40033 ft | 429 kts | 270° |
| 2026-05-05 09:24 | 37.40106 | 125.53403 | 40031 ft | 429 kts | 270° |
| 2026-05-05 09:25 | 37.39997 | 125.45879 | 40030 ft | 430 kts | 270° |
| 2026-05-05 09:25 | 37.39885 | 125.38380 | 40026 ft | 430 kts | 270° |
| 2026-05-05 09:26 | 37.39768 | 125.30902 | 40038 ft | 430 kts | 269° |
| 2026-05-05 09:26 | 37.39646 | 125.23384 | 40025 ft | 431 kts | 269° |
| 2026-05-05 09:27 | 37.39521 | 125.15891 | 40022 ft | 431 kts | 269° |
| 2026-05-05 09:27 | 37.39391 | 125.08375 | 40031 ft | 431 kts | 269° |
| 2026-05-05 09:28 | 37.39257 | 125.00858 | 40017 ft | 431 kts | 269° |
| 2026-05-05 09:28 | 37.39117 | 124.93327 | 40030 ft | 431 kts | 269° |
| 2026-05-05 09:29 | 37.38973 | 124.85792 | 40026 ft | 432 kts | 270° |
| 2026-05-05 09:29 | 37.38823 | 124.78271 | 40004 ft | 433 kts | 270° |
| 2026-05-05 09:30 | 37.38668 | 124.70756 | 39996 ft | 432 kts | 269° |
| 2026-05-05 09:30 | 37.38508 | 124.63216 | 39989 ft | 432 kts | 270° |
| 2026-05-05 09:31 | 37.38343 | 124.55666 | 39996 ft | 432 kts | 270° |
| 2026-05-05 09:31 | 37.38130 | 124.48113 | 39989 ft | 432 kts | 266° |
| 2026-05-05 09:32 | 37.36877 | 124.40779 | 39987 ft | 436 kts | 253° |
| 2026-05-05 09:32 | 37.34131 | 124.33943 | 40003 ft | 440 kts | 240° |
| 2026-05-05 09:33 | 37.30905 | 124.27509 | 39992 ft | 441 kts | 240° |
| 2026-05-05 09:33 | 37.27758 | 124.21236 | 39987 ft | 442 kts | 240° |
| 2026-05-05 09:34 | 37.24497 | 124.14751 | 39984 ft | 442 kts | 240° |
| 2026-05-05 09:34 | 37.22848 | 124.11513 | 39821 ft | 446 kts | 240° |
| 2026-05-05 09:34 | 37.21343 | 124.08095 | 39577 ft | 445 kts | 249° |
| 2026-05-05 09:34 | 37.20325 | 124.04469 | 39339 ft | 441 kts | 258° |
| 2026-05-05 09:35 | 37.19819 | 124.00701 | 39053 ft | 438 kts | 267° |
| 2026-05-05 09:35 | 37.20380 | 123.93218 | 38476 ft | 433 kts | 287° |
| 2026-05-05 09:35 | 37.21427 | 123.89696 | 38174 ft | 433 kts | 296° |
| 2026-05-05 09:36 | 37.24885 | 123.83545 | 38063 ft | 432 kts | 311° |
| 2026-05-05 09:36 | 37.28793 | 123.77862 | 38076 ft | 433 kts | 310° |
| 2026-05-05 09:37 | 37.32697 | 123.72048 | 38069 ft | 432 kts | 310° |
| 2026-05-05 09:37 | 37.36500 | 123.66249 | 38074 ft | 432 kts | 309° |
| 2026-05-05 09:38 | 37.40271 | 123.60359 | 38061 ft | 433 kts | 309° |
| 2026-05-05 09:38 | 37.43982 | 123.54429 | 38052 ft | 433 kts | 308° |
| 2026-05-05 09:39 | 37.47626 | 123.48402 | 38056 ft | 432 kts | 308° |
| 2026-05-05 09:39 | 37.51230 | 123.42374 | 38059 ft | 432 kts | 308° |
| 2026-05-05 09:40 | 37.54826 | 123.36346 | 38061 ft | 431 kts | 308° |
| 2026-05-05 09:40 | 37.58727 | 123.30564 | 38048 ft | 432 kts | 315° |
| 2026-05-05 09:41 | 37.62952 | 123.25206 | 38035 ft | 431 kts | 314° |
| 2026-05-05 09:41 | 37.67142 | 123.19868 | 38052 ft | 430 kts | 314° |
| 2026-05-05 09:42 | 37.71358 | 123.14484 | 38017 ft | 431 kts | 314° |
| 2026-05-05 09:42 | 37.75536 | 123.09139 | 38039 ft | 430 kts | 314° |
| 2026-05-05 09:43 | 37.79740 | 123.03745 | 38025 ft | 431 kts | 314° |
| 2026-05-05 09:43 | 37.83941 | 122.98346 | 38035 ft | 430 kts | 315° |
| 2026-05-05 09:44 | 37.88132 | 122.92948 | 38010 ft | 430 kts | 314° |
| 2026-05-05 09:44 | 37.92297 | 122.87574 | 37997 ft | 431 kts | 314° |
| 2026-05-05 09:45 | 37.96484 | 122.82162 | 38006 ft | 430 kts | 314° |
| 2026-05-05 09:45 | 38.00660 | 122.76753 | 38018 ft | 429 kts | 314° |
| 2026-05-05 09:46 | 38.04847 | 122.71321 | 37731 ft | 431 kts | 314° |
| 2026-05-05 09:46 | 38.06924 | 122.68622 | 37527 ft | 426 kts | 315° |
| 2026-05-05 09:46 | 38.08983 | 122.65945 | 37319 ft | 422 kts | 315° |
| 2026-05-05 09:47 | 38.11031 | 122.63296 | 37121 ft | 420 kts | 315° |
| 2026-05-05 09:47 | 38.13077 | 122.60667 | 36916 ft | 420 kts | 315° |
| 2026-05-05 09:47 | 38.15121 | 122.58039 | 36706 ft | 419 kts | 315° |
| 2026-05-05 09:47 | 38.17183 | 122.55396 | 36512 ft | 419 kts | 316° |
| 2026-05-05 09:48 | 38.19374 | 122.52971 | 36325 ft | 420 kts | 323° |
| 2026-05-05 09:48 | 38.21781 | 122.50907 | 36149 ft | 420 kts | 329° |
| 2026-05-05 09:48 | 38.24388 | 122.49231 | 35964 ft | 422 kts | 336° |
| 2026-05-05 09:48 | 38.27162 | 122.47977 | 35768 ft | 423 kts | 343° |
| 2026-05-05 09:49 | 38.30009 | 122.47192 | 35570 ft | 424 kts | 350° |
| 2026-05-05 09:49 | 38.32986 | 122.46877 | 35374 ft | 426 kts | 358° |
| 2026-05-05 09:49 | 38.35958 | 122.47066 | 35177 ft | 429 kts | 4° |
| 2026-05-05 09:49 | 38.38909 | 122.47527 | 34975 ft | 430 kts | 5° |
| 2026-05-05 09:50 | 38.41879 | 122.47997 | 34774 ft | 431 kts | 5° |
| 2026-05-05 09:50 | 38.44844 | 122.48467 | 34571 ft | 431 kts | 5° |
| 2026-05-05 09:50 | 38.47832 | 122.48941 | 34388 ft | 432 kts | 5° |
| 2026-05-05 09:50 | 38.50811 | 122.49414 | 34144 ft | 432 kts | 5° |
| 2026-05-05 09:51 | 38.53818 | 122.49892 | 33916 ft | 433 kts | 5° |
| 2026-05-05 09:51 | 38.56781 | 122.50365 | 33667 ft | 434 kts | 5° |
| 2026-05-05 09:51 | 38.59810 | 122.50848 | 33424 ft | 435 kts | 5° |
| 2026-05-05 09:51 | 38.62787 | 122.51324 | 33184 ft | 435 kts | 5° |
| 2026-05-05 09:52 | 38.65761 | 122.51800 | 32943 ft | 434 kts | 5° |
| 2026-05-05 09:52 | 38.68750 | 122.52279 | 32695 ft | 431 kts | 5° |
| 2026-05-05 09:52 | 38.71734 | 122.52757 | 32449 ft | 430 kts | 5° |
| 2026-05-05 09:52 | 38.74702 | 122.53233 | 32205 ft | 428 kts | 5° |
| 2026-05-05 09:53 | 38.77624 | 122.53702 | 31954 ft | 427 kts | 5° |
| 2026-05-05 09:53 | 38.80570 | 122.54177 | 31706 ft | 426 kts | 5° |
| 2026-05-05 09:53 | 38.83510 | 122.54650 | 31457 ft | 424 kts | 5° |
| 2026-05-05 09:53 | 38.86436 | 122.55122 | 31216 ft | 423 kts | 5° |
| 2026-05-05 09:54 | 38.89360 | 122.55593 | 30963 ft | 423 kts | 5° |
| 2026-05-05 09:54 | 38.92265 | 122.56062 | 30714 ft | 421 kts | 5° |
| 2026-05-05 09:54 | 38.95165 | 122.56531 | 30469 ft | 420 kts | 5° |
| 2026-05-05 09:54 | 38.98056 | 122.56998 | 30224 ft | 419 kts | 5° |
| 2026-05-05 09:55 | 39.00945 | 122.57466 | 29975 ft | 417 kts | 5° |
| 2026-05-05 09:55 | 39.03820 | 122.57931 | 29725 ft | 416 kts | 5° |
| 2026-05-05 09:55 | 39.06679 | 122.58395 | 29480 ft | 415 kts | 5° |
| 2026-05-05 09:55 | 39.09551 | 122.58862 | 29239 ft | 413 kts | 5° |
| 2026-05-05 09:56 | 39.12408 | 122.59325 | 28974 ft | 411 kts | 5° |
| 2026-05-05 09:56 | 39.15236 | 122.59785 | 28719 ft | 412 kts | 5° |
| 2026-05-05 09:56 | 39.18128 | 122.60254 | 28498 ft | 423 kts | 5° |
| 2026-05-05 09:56 | 39.21088 | 122.60734 | 28357 ft | 436 kts | 5° |
| 2026-05-05 09:57 | 39.24152 | 122.61236 | 28197 ft | 447 kts | 5° |
| 2026-05-05 09:57 | 39.27183 | 122.62196 | 28048 ft | 454 kts | 19° |
| 2026-05-05 09:57 | 39.30013 | 122.64017 | 27871 ft | 456 kts | 26° |
| 2026-05-05 09:57 | 39.32806 | 122.66025 | 27717 ft | 453 kts | 26° |
| 2026-05-05 09:58 | 39.35538 | 122.67979 | 27573 ft | 451 kts | 26° |
| 2026-05-05 09:58 | 39.38281 | 122.69943 | 27409 ft | 450 kts | 26° |
| 2026-05-05 09:58 | 39.41006 | 122.71892 | 27264 ft | 449 kts | 26° |
| 2026-05-05 09:58 | 39.43729 | 122.73841 | 27105 ft | 447 kts | 26° |
| 2026-05-05 09:59 | 39.46466 | 122.75803 | 26960 ft | 447 kts | 26° |
| 2026-05-05 09:59 | 39.49165 | 122.77741 | 26800 ft | 446 kts | 26° |
| 2026-05-05 09:59 | 39.51905 | 122.79708 | 26656 ft | 446 kts | 26° |
| 2026-05-05 09:59 | 39.54603 | 122.81648 | 26496 ft | 445 kts | 26° |
| 2026-05-05 10:00 | 39.57323 | 122.83605 | 26361 ft | 444 kts | 26° |
| 2026-05-05 10:00 | 39.60037 | 122.85559 | 26193 ft | 444 kts | 26° |
| 2026-05-05 10:00 | 39.62716 | 122.87490 | 26059 ft | 443 kts | 26° |
| 2026-05-05 10:00 | 39.65417 | 122.89438 | 25902 ft | 442 kts | 26° |
| 2026-05-05 10:01 | 39.68086 | 122.91365 | 25715 ft | 437 kts | 26° |
| 2026-05-05 10:01 | 39.70731 | 122.93276 | 25639 ft | 441 kts | 26° |
| 2026-05-05 10:01 | 39.73469 | 122.95255 | 25465 ft | 450 kts | 27° |
| 2026-05-05 10:01 | 39.76204 | 122.97234 | 25273 ft | 449 kts | 27° |
| 2026-05-05 10:02 | 39.78904 | 122.99192 | 24992 ft | 438 kts | 27° |
| 2026-05-05 10:02 | 39.81543 | 123.01108 | 24917 ft | 435 kts | 27° |
| 2026-05-05 10:02 | 39.84218 | 123.03049 | 24761 ft | 437 kts | 27° |
| 2026-05-05 10:02 | 39.86894 | 123.04992 | 24616 ft | 438 kts | 27° |
| 2026-05-05 10:03 | 39.89554 | 123.06921 | 24468 ft | 438 kts | 27° |
| 2026-05-05 10:03 | 39.92216 | 123.08846 | 24313 ft | 436 kts | 26° |
| 2026-05-05 10:03 | 39.94882 | 123.10776 | 24158 ft | 435 kts | 26° |
| 2026-05-05 10:03 | 39.97527 | 123.12691 | 24010 ft | 434 kts | 26° |
| 2026-05-05 10:04 | 40.00146 | 123.14590 | 23862 ft | 434 kts | 26° |
| 2026-05-05 10:04 | 40.02793 | 123.16511 | 23710 ft | 433 kts | 27° |
| 2026-05-05 10:04 | 40.05410 | 123.18407 | 23561 ft | 432 kts | 26° |
| 2026-05-05 10:04 | 40.08041 | 123.20301 | 23412 ft | 432 kts | 26° |
| 2026-05-05 10:05 | 40.10518 | 123.22085 | 23260 ft | 431 kts | 26° |
| 2026-05-05 10:05 | 40.13150 | 123.23982 | 23095 ft | 431 kts | 26° |
| 2026-05-05 10:05 | 40.15756 | 123.25862 | 22932 ft | 430 kts | 26° |
| 2026-05-05 10:05 | 40.18377 | 123.27755 | 22769 ft | 430 kts | 26° |
| 2026-05-05 10:06 | 40.19941 | 123.28885 | 22683 ft | 429 kts | 26° |
| 2026-05-05 10:28 | 40.21130 | 123.29745 | 22615 ft | 429 kts | 26° |
| 2026-05-05 10:28 | 40.23759 | 123.31647 | 22482 ft | 429 kts | 26° |
| 2026-05-05 10:29 | 40.26355 | 123.33527 | 22308 ft | 428 kts | 26° |
| 2026-05-05 10:29 | 40.28949 | 123.35407 | 22176 ft | 427 kts | 26° |
| 2026-05-05 10:29 | 40.31532 | 123.37281 | 22038 ft | 426 kts | 26° |
| 2026-05-05 10:29 | 40.34148 | 123.39180 | 21883 ft | 426 kts | 26° |
| 2026-05-05 10:30 | 40.36727 | 123.41056 | 21748 ft | 425 kts | 26° |
| 2026-05-05 10:30 | 40.39314 | 123.42937 | 21595 ft | 424 kts | 26° |
| 2026-05-05 10:30 | 40.41874 | 123.44801 | 21456 ft | 423 kts | 26° |
| 2026-05-05 10:30 | 40.44466 | 123.46690 | 21322 ft | 422 kts | 26° |
| 2026-05-05 10:31 | 40.47023 | 123.48555 | 21168 ft | 422 kts | 26° |
| 2026-05-05 10:31 | 40.49580 | 123.50423 | 21026 ft | 421 kts | 26° |
| 2026-05-05 10:31 | 40.52138 | 123.52292 | 20894 ft | 421 kts | 26° |
| 2026-05-05 10:31 | 40.54700 | 123.54166 | 20741 ft | 420 kts | 26° |
| 2026-05-05 10:32 | 40.57237 | 123.56024 | 20610 ft | 419 kts | 26° |
| 2026-05-05 10:32 | 40.59662 | 123.58133 | 20459 ft | 422 kts | 34° |
| 2026-05-05 10:32 | 40.61966 | 123.60525 | 20315 ft | 421 kts | 35° |
| 2026-05-05 10:32 | 40.64249 | 123.62899 | 20176 ft | 420 kts | 35° |
| 2026-05-05 10:33 | 40.66566 | 123.65308 | 20035 ft | 419 kts | 36° |
| 2026-05-05 10:33 | 40.68840 | 123.67671 | 19886 ft | 419 kts | 36° |
| 2026-05-05 10:33 | 40.71146 | 123.70069 | 19760 ft | 418 kts | 36° |
| 2026-05-05 10:33 | 40.73434 | 123.72449 | 19596 ft | 418 kts | 36° |
| 2026-05-05 10:34 | 40.75705 | 123.74812 | 19440 ft | 417 kts | 36° |
| 2026-05-05 10:34 | 40.77957 | 123.77156 | 19300 ft | 415 kts | 36° |
| 2026-05-05 10:34 | 40.80233 | 123.79528 | 19178 ft | 417 kts | 36° |
| 2026-05-05 10:34 | 40.82529 | 123.81921 | 19017 ft | 415 kts | 36° |
| 2026-05-05 10:35 | 40.84769 | 123.84257 | 18873 ft | 415 kts | 36° |
| 2026-05-05 10:35 | 40.87060 | 123.86647 | 18740 ft | 413 kts | 36° |
| 2026-05-05 10:35 | 40.89317 | 123.89007 | 18584 ft | 413 kts | 36° |
| 2026-05-05 10:35 | 40.91636 | 123.91222 | 18432 ft | 409 kts | 27° |
| 2026-05-05 10:36 | 40.94149 | 123.93047 | 18244 ft | 409 kts | 25° |
| 2026-05-05 10:36 | 40.96687 | 123.94858 | 18008 ft | 408 kts | 25° |
| 2026-05-05 10:36 | 40.99183 | 123.96647 | 17812 ft | 406 kts | 25° |
| 2026-05-05 10:36 | 41.01670 | 123.98431 | 17597 ft | 405 kts | 25° |
| 2026-05-05 10:37 | 41.04152 | 124.00213 | 17412 ft | 404 kts | 25° |
| 2026-05-05 10:37 | 41.06649 | 124.02007 | 17209 ft | 404 kts | 25° |
| 2026-05-05 10:37 | 41.09096 | 124.03768 | 17025 ft | 403 kts | 25° |
| 2026-05-05 10:37 | 41.11571 | 124.05551 | 16830 ft | 402 kts | 25° |
| 2026-05-05 10:38 | 41.14052 | 124.07341 | 16650 ft | 402 kts | 25° |
| 2026-05-05 10:38 | 41.16514 | 124.09122 | 16414 ft | 401 kts | 25° |
| 2026-05-05 10:38 | 41.18948 | 124.10884 | 16212 ft | 399 kts | 25° |
| 2026-05-05 10:38 | 41.21368 | 124.12637 | 16018 ft | 398 kts | 25° |
| 2026-05-05 10:39 | 41.23811 | 124.14409 | 15798 ft | 397 kts | 25° |
| 2026-05-05 10:39 | 41.26248 | 124.16179 | 15572 ft | 396 kts | 25° |
| 2026-05-05 10:39 | 41.28674 | 124.17942 | 15425 ft | 395 kts | 25° |
| 2026-05-05 10:39 | 41.31078 | 124.19684 | 15174 ft | 396 kts | 25° |
| 2026-05-05 10:40 | 41.33490 | 124.21434 | 14725 ft | 395 kts | 25° |
| 2026-05-05 10:40 | 41.35896 | 124.23182 | 14198 ft | 390 kts | 25° |
| 2026-05-05 10:40 | 41.38279 | 124.24916 | 13861 ft | 385 kts | 25° |
| 2026-05-05 10:40 | 41.40612 | 124.26591 | 13445 ft | 383 kts | 22° |
| 2026-05-05 10:41 | 41.43106 | 124.27681 | 13031 ft | 368 kts | 5° |
| 2026-05-05 10:41 | 41.45594 | 124.27768 | 12628 ft | 355 kts | 348° |
| 2026-05-05 10:41 | 41.47965 | 124.26945 | 12210 ft | 341 kts | 332° |
| 2026-05-05 10:41 | 41.49959 | 124.25417 | 11736 ft | 327 kts | 317° |
| 2026-05-05 10:42 | 41.53086 | 124.21409 | 11178 ft | 303 kts | 310° |
| 2026-05-05 10:42 | 41.54569 | 124.19434 | 11006 ft | 293 kts | 310° |
| 2026-05-05 10:42 | 41.56001 | 124.17521 | 10783 ft | 290 kts | 309° |
| 2026-05-05 10:43 | 41.57415 | 124.15630 | 10528 ft | 284 kts | 309° |
| 2026-05-05 10:43 | 41.58787 | 124.13796 | 10264 ft | 278 kts | 309° |
| 2026-05-05 10:43 | 41.60151 | 124.11970 | 9994 ft | 274 kts | 309° |
| 2026-05-05 10:43 | 41.61494 | 124.10174 | 9714 ft | 273 kts | 309° |
| 2026-05-05 10:44 | 41.62826 | 124.08387 | 9453 ft | 272 kts | 308° |
| 2026-05-05 10:44 | 41.64172 | 124.06580 | 9176 ft | 271 kts | 308° |
| 2026-05-05 10:44 | 41.65505 | 124.04791 | 8903 ft | 268 kts | 308° |
| 2026-05-05 10:44 | 41.66810 | 124.03037 | 8646 ft | 262 kts | 308° |
| 2026-05-05 10:45 | 41.68072 | 124.01338 | 8383 ft | 258 kts | 307° |
| 2026-05-05 10:45 | 41.69338 | 123.99636 | 8145 ft | 251 kts | 307° |
| 2026-05-05 10:45 | 41.70572 | 123.97980 | 7874 ft | 248 kts | 307° |
| 2026-05-05 10:45 | 41.71762 | 123.96378 | 7643 ft | 242 kts | 307° |
| 2026-05-05 10:46 | 41.72943 | 123.94789 | 7405 ft | 237 kts | 306° |
| 2026-05-05 10:46 | 41.74097 | 123.93233 | 7175 ft | 232 kts | 306° |
| 2026-05-05 10:46 | 41.75225 | 123.91712 | 6946 ft | 228 kts | 306° |
| 2026-05-05 10:46 | 41.76328 | 123.90224 | 6721 ft | 224 kts | 305° |
| 2026-05-05 10:47 | 41.77430 | 123.88743 | 6510 ft | 221 kts | 305° |
| 2026-05-05 10:47 | 41.78562 | 123.87327 | 6276 ft | 224 kts | 309° |
| 2026-05-05 10:47 | 41.79736 | 123.85958 | 6072 ft | 223 kts | 309° |
| 2026-05-05 10:47 | 41.80913 | 123.84579 | 5842 ft | 224 kts | 309° |
| 2026-05-05 10:48 | 41.82086 | 123.83212 | 5627 ft | 223 kts | 309° |
| 2026-05-05 10:48 | 41.83225 | 123.81805 | 5398 ft | 217 kts | 298° |
| 2026-05-05 10:48 | 41.83776 | 123.80029 | 5126 ft | 197 kts | 266° |
| 2026-05-05 10:48 | 41.83515 | 123.78326 | 4912 ft | 184 kts | 239° |
| 2026-05-05 10:49 | 41.82767 | 123.76927 | 4661 ft | 183 kts | 230° |
| 2026-05-05 10:49 | 41.81945 | 123.75625 | 4370 ft | 182 kts | 229° |
| 2026-05-05 10:49 | 41.81127 | 123.74353 | 4057 ft | 182 kts | 229° |
| 2026-05-05 10:49 | 41.80291 | 123.73080 | 3941 ft | 177 kts | 228° |
| 2026-05-05 10:50 | 41.79460 | 123.71814 | 3931 ft | 181 kts | 228° |
| 2026-05-05 10:50 | 41.78646 | 123.70564 | 3946 ft | 174 kts | 228° |
| 2026-05-05 10:50 | 41.77870 | 123.69387 | 3881 ft | 168 kts | 227° |
| 2026-05-05 10:50 | 41.77093 | 123.68208 | 3667 ft | 166 kts | 227° |
| 2026-05-05 10:51 | 41.76329 | 123.67042 | 3468 ft | 167 kts | 227° |
| 2026-05-05 10:51 | 41.75558 | 123.65869 | 3255 ft | 166 kts | 227° |
| 2026-05-05 10:51 | 41.74815 | 123.64742 | 3071 ft | 156 kts | 227° |
| 2026-05-05 10:51 | 41.74149 | 123.63727 | 2882 ft | 132 kts | 226° |
| 2026-05-05 10:52 | 41.73543 | 123.62804 | 2732 ft | 133 kts | 226° |
| 2026-05-05 10:52 | 41.72934 | 123.61880 | 2549 ft | 131 kts | 226° |
| 2026-05-05 10:52 | 41.72335 | 123.60967 | 2390 ft | 130 kts | 226° |
| 2026-05-05 10:52 | 41.71741 | 123.60059 | 2202 ft | 129 kts | 225° |
| 2026-05-05 10:53 | 41.71139 | 123.59154 | 2035 ft | 129 kts | 225° |
| 2026-05-05 10:53 | 41.70532 | 123.58247 | 1864 ft | 131 kts | 224° |
| 2026-05-05 10:53 | 41.69934 | 123.57327 | 1676 ft | 131 kts | 225° |
| 2026-05-05 10:53 | 41.69333 | 123.56410 | 1503 ft | 129 kts | 225° |
| 2026-05-05 10:54 | 41.68741 | 123.55509 | 1352 ft | 130 kts | 223° |
| 2026-05-05 10:54 | 41.68140 | 123.54613 | 1160 ft | 128 kts | 223° |
| 2026-05-05 10:54 | 41.67543 | 123.53729 | 989 ft | 128 kts | 223° |
| 2026-05-05 10:54 | 41.66949 | 123.52829 | 825 ft | 128 kts | 222° |
| 2026-05-05 10:55 | 41.66772 | 123.52567 | 768 ft | 128 kts | 224° |
| 2026-05-05 10:55 | 41.66257 | 123.51791 | 632 ft | 130 kts | 222° |
| 2026-05-05 10:55 | 41.65659 | 123.50877 | 447 ft | 129 kts | 223° |
| 2026-05-05 10:55 | 41.65066 | 123.49979 | 292 ft | 129 kts | 223° |
| 2026-05-05 10:56 | 41.64487 | 123.49084 | 206 ft | 113 kts | 226° |
| 2026-05-05 10:56 | 41.64110 | 123.48512 | 205 ft | 51 kts | 230° |
| 2026-05-05 10:56 | 41.64040 | 123.48403 | 205 ft | 0 kts | 218° |
| 2026-05-05 10:56 | 41.63990 | 123.48401 | 205 ft | 12 kts | 143° |
| 2026-05-05 10:57 | 41.63927 | 123.48471 | 205 ft | 12 kts | 142° |
| 2026-05-05 10:57 | 41.63856 | 123.48557 | 205 ft | 14 kts | 136° |
| 2026-05-05 10:57 | 41.63855 | 123.48656 | 205 ft | 9 kts | 124° |
| 2026-05-05 10:57 | 41.63821 | 123.48701 | 205 ft | 5 kts | 139° |
| 2026-05-05 10:58 | 41.63799 | 123.48727 | 205 ft | 2 kts | 139° |
| 2026-05-05 10:58 | 41.63791 | 123.48737 | 205 ft | 0 kts | 139° |
| 2026-05-05 10:58 | 41.63790 | 123.48737 | 205 ft | 0 kts | 139° |
| 2026-05-05 10:58 | 41.63789 | 123.48738 | 205 ft | 0 kts | 139° |